sensor_id;sensor_type;location;lat;lon;timestamp;pressure;altitude;pressure_sealevel;temperature;humidity
53262;BME280;39658;51.090;-1.786;2022-10-16T00:02:14;99960.94;;;10.51;95.06
53262;BME280;39658;51.090;-1.786;2022-10-16T00:04:41;99965.72;;;10.56;93.92
53262;BME280;39658;51.090;-1.786;2022-10-16T00:07:08;99968.34;;;10.64;93.40
53262;BME280;39658;51.090;-1.786;2022-10-16T00:09:35;99983.91;;;10.83;92.92
53262;BME280;39658;51.090;-1.786;2022-10-16T00:12:01;99984.22;;;10.88;91.73
53262;BME280;39658;51.090;-1.786;2022-10-16T00:14:31;99996.63;;;10.96;92.62
53262;BME280;39658;51.090;-1.786;2022-10-16T00:16:57;99998.34;;;10.89;93.05
53262;BME280;39658;51.090;-1.786;2022-10-16T00:19:24;99989.41;;;10.82;93.82
53262;BME280;39658;51.090;-1.786;2022-10-16T00:21:51;99993.72;;;10.75;94.03
53262;BME280;39658;51.090;-1.786;2022-10-16T00:24:18;99993.44;;;10.70;94.34
53262;BME280;39658;51.090;-1.786;2022-10-16T00:26:45;100004.28;;;10.60;95.04
53262;BME280;39658;51.090;-1.786;2022-10-16T00:29:11;99997.00;;;10.54;95.65
53262;BME280;39658;51.090;-1.786;2022-10-16T00:31:40;99994.19;;;10.47;94.88
53262;BME280;39658;51.090;-1.786;2022-10-16T00:34:06;100003.00;;;10.48;96.10
53262;BME280;39658;51.090;-1.786;2022-10-16T00:36:33;99992.22;;;10.41;95.62
53262;BME280;39658;51.090;-1.786;2022-10-16T00:39:00;99992.88;;;10.35;95.94
53262;BME280;39658;51.090;-1.786;2022-10-16T00:41:27;99991.56;;;10.31;96.18
53262;BME280;39658;51.090;-1.786;2022-10-16T00:43:56;100001.03;;;10.33;97.20
53262;BME280;39658;51.090;-1.786;2022-10-16T00:46:25;99993.88;;;10.34;96.62
53262;BME280;39658;51.090;-1.786;2022-10-16T00:48:57;99997.03;;;10.38;96.86
53262;BME280;39658;51.090;-1.786;2022-10-16T00:51:30;99997.53;;;10.33;96.49
53262;BME280;39658;51.090;-1.786;2022-10-16T00:53:58;100001.88;;;10.26;97.17
53262;BME280;39658;51.090;-1.786;2022-10-16T00:56:26;100007.53;;;10.23;97.59
53262;BME280;39658;51.090;-1.786;2022-10-16T00:58:52;100001.84;;;10.34;95.89
53262;BME280;39658;51.090;-1.786;2022-10-16T01:01:20;100014.34;;;10.25;95.96
53262;BME280;39658;51.090;-1.786;2022-10-16T01:03:47;100009.38;;;10.22;96.50
53262;BME280;39658;51.090;-1.786;2022-10-16T01:06:24;100016.84;;;10.19;96.16
53262;BME280;39658;51.090;-1.786;2022-10-16T01:09:03;100008.72;;;10.20;94.63
53262;BME280;39658;51.090;-1.786;2022-10-16T01:11:40;100014.50;;;10.32;93.17
53262;BME280;39658;51.090;-1.786;2022-10-16T01:14:19;100010.38;;;10.21;93.09
53262;BME280;39658;51.090;-1.786;2022-10-16T01:16:50;100011.38;;;10.12;93.40
53262;BME280;39658;51.090;-1.786;2022-10-16T01:19:26;100013.38;;;10.10;93.70
53262;BME280;39658;51.090;-1.786;2022-10-16T01:21:55;100009.38;;;10.06;93.14
53262;BME280;39658;51.090;-1.786;2022-10-16T01:24:31;100001.41;;;9.98;93.79
53262;BME280;39658;51.090;-1.786;2022-10-16T01:27:09;100012.03;;;10.06;94.08
53262;BME280;39658;51.090;-1.786;2022-10-16T01:29:40;100017.03;;;10.01;94.66
53262;BME280;39658;51.090;-1.786;2022-10-16T01:32:14;100015.19;;;9.85;94.93
53262;BME280;39658;51.090;-1.786;2022-10-16T01:34:47;100022.03;;;9.71;96.52
53262;BME280;39658;51.090;-1.786;2022-10-16T01:37:18;100037.63;;;9.74;96.55
53262;BME280;39658;51.090;-1.786;2022-10-16T01:39:48;100031.31;;;9.67;97.14
53262;BME280;39658;51.090;-1.786;2022-10-16T01:42:20;100024.97;;;9.60;97.49
53262;BME280;39658;51.090;-1.786;2022-10-16T01:44:49;100036.97;;;9.64;97.84
53262;BME280;39658;51.090;-1.786;2022-10-16T01:47:18;100033.94;;;9.59;98.70
53262;BME280;39658;51.090;-1.786;2022-10-16T01:49:49;100039.63;;;9.64;98.47
53262;BME280;39658;51.090;-1.786;2022-10-16T01:52:20;100041.94;;;9.76;98.31
53262;BME280;39658;51.090;-1.786;2022-10-16T01:54:51;100040.63;;;9.71;98.06
53262;BME280;39658;51.090;-1.786;2022-10-16T01:57:21;100043.94;;;9.73;98.03
53262;BME280;39658;51.090;-1.786;2022-10-16T01:59:55;100046.44;;;9.75;98.25
53262;BME280;39658;51.090;-1.786;2022-10-16T02:02:23;100058.22;;;9.81;97.96
53262;BME280;39658;51.090;-1.786;2022-10-16T02:04:58;100062.22;;;9.85;97.75
53262;BME280;39658;51.090;-1.786;2022-10-16T02:07:25;100057.72;;;9.77;97.94
53262;BME280;39658;51.090;-1.786;2022-10-16T02:09:52;100056.56;;;9.71;98.46
53262;BME280;39658;51.090;-1.786;2022-10-16T02:12:24;100067.66;;;9.59;98.97
53262;BME280;39658;51.090;-1.786;2022-10-16T02:14:52;100073.47;;;9.54;99.55
53262;BME280;39658;51.090;-1.786;2022-10-16T02:17:20;100071.78;;;9.45;100.00
53262;BME280;39658;51.090;-1.786;2022-10-16T02:19:48;100072.94;;;9.51;100.00
53262;BME280;39658;51.090;-1.786;2022-10-16T02:22:19;100075.28;;;9.54;100.00
53262;BME280;39658;51.090;-1.786;2022-10-16T02:24:52;100067.81;;;9.49;99.91
53262;BME280;39658;51.090;-1.786;2022-10-16T02:27:25;100072.47;;;9.55;98.99
53262;BME280;39658;51.090;-1.786;2022-10-16T02:29:53;100072.94;;;9.42;99.80
53262;BME280;39658;51.090;-1.786;2022-10-16T02:32:27;100073.09;;;9.33;100.00
53262;BME280;39658;51.090;-1.786;2022-10-16T02:34:56;100082.06;;;9.32;99.44
53262;BME280;39658;51.090;-1.786;2022-10-16T02:37:24;100088.03;;;9.34;100.00
53262;BME280;39658;51.090;-1.786;2022-10-16T02:39:52;100093.00;;;9.29;100.00
53262;BME280;39658;51.090;-1.786;2022-10-16T02:42:19;100092.16;;;9.28;100.00
53262;BME280;39658;51.090;-1.786;2022-10-16T02:44:47;100097.13;;;9.23;100.00
53262;BME280;39658;51.090;-1.786;2022-10-16T02:47:14;100094.47;;;9.23;100.00
53262;BME280;39658;51.090;-1.786;2022-10-16T02:49:41;100104.94;;;9.25;100.00
53262;BME280;39658;51.090;-1.786;2022-10-16T02:52:08;100112.34;;;9.13;100.00
53262;BME280;39658;51.090;-1.786;2022-10-16T02:54:35;100115.75;;;8.97;100.00
53262;BME280;39658;51.090;-1.786;2022-10-16T02:57:01;100120.53;;;8.86;100.00
53262;BME280;39658;51.090;-1.786;2022-10-16T02:59:28;100117.34;;;8.82;100.00
53262;BME280;39658;51.090;-1.786;2022-10-16T03:01:56;100122.75;;;8.72;100.00
53262;BME280;39658;51.090;-1.786;2022-10-16T03:04:23;100121.25;;;8.70;100.00
53262;BME280;39658;51.090;-1.786;2022-10-16T03:06:50;100121.69;;;8.57;100.00
53262;BME280;39658;51.090;-1.786;2022-10-16T03:09:17;100118.00;;;8.50;100.00
53262;BME280;39658;51.090;-1.786;2022-10-16T03:11:44;100118.69;;;8.34;100.00
53262;BME280;39658;51.090;-1.786;2022-10-16T03:14:10;100116.63;;;8.28;100.00
53262;BME280;39658;51.090;-1.786;2022-10-16T03:16:37;100118.53;;;8.00;100.00
53262;BME280;39658;51.090;-1.786;2022-10-16T03:19:05;100121.66;;;7.96;100.00
53262;BME280;39658;51.090;-1.786;2022-10-16T03:21:32;100128.94;;;7.76;100.00
53262;BME280;39658;51.090;-1.786;2022-10-16T03:23:59;100125.56;;;7.56;100.00
53262;BME280;39658;51.090;-1.786;2022-10-16T03:26:26;100128.88;;;7.68;100.00
53262;BME280;39658;51.090;-1.786;2022-10-16T03:28:53;100142.63;;;7.89;100.00
53262;BME280;39658;51.090;-1.786;2022-10-16T03:31:19;100141.66;;;8.08;100.00
53262;BME280;39658;51.090;-1.786;2022-10-16T03:33:47;100139.84;;;8.08;100.00
53262;BME280;39658;51.090;-1.786;2022-10-16T03:36:15;100149.13;;;7.95;100.00
53262;BME280;39658;51.090;-1.786;2022-10-16T03:38:42;100153.13;;;7.99;100.00
53262;BME280;39658;51.090;-1.786;2022-10-16T03:41:08;100151.31;;;7.99;100.00
53262;BME280;39658;51.090;-1.786;2022-10-16T03:43:35;100152.16;;;8.00;100.00
53262;BME280;39658;51.090;-1.786;2022-10-16T03:46:02;100163.66;;;7.91;100.00
53262;BME280;39658;51.090;-1.786;2022-10-16T03:48:29;100162.63;;;8.01;100.00
53262;BME280;39658;51.090;-1.786;2022-10-16T03:50:57;100163.75;;;8.16;100.00
53262;BME280;39658;51.090;-1.786;2022-10-16T03:53:25;100169.06;;;8.16;100.00
53262;BME280;39658;51.090;-1.786;2022-10-16T03:55:52;100169.13;;;8.25;100.00
53262;BME280;39658;51.090;-1.786;2022-10-16T03:58:19;100176.31;;;8.50;100.00
53262;BME280;39658;51.090;-1.786;2022-10-16T04:00:46;100188.72;;;8.32;99.34
53262;BME280;39658;51.090;-1.786;2022-10-16T04:03:14;100192.16;;;8.06;99.42
53262;BME280;39658;51.090;-1.786;2022-10-16T04:05:41;100193.19;;;7.96;100.00
53262;BME280;39658;51.090;-1.786;2022-10-16T04:08:07;100195.47;;;7.91;100.00
53262;BME280;39658;51.090;-1.786;2022-10-16T04:10:35;100202.41;;;7.74;100.00
53262;BME280;39658;51.090;-1.786;2022-10-16T04:13:02;100204.13;;;7.65;100.00
53262;BME280;39658;51.090;-1.786;2022-10-16T04:15:29;100210.41;;;7.64;100.00
53262;BME280;39658;51.090;-1.786;2022-10-16T04:17:56;100216.03;;;7.51;100.00
53262;BME280;39658;51.090;-1.786;2022-10-16T04:20:23;100218.94;;;7.58;100.00
53262;BME280;39658;51.090;-1.786;2022-10-16T04:22:49;100221.19;;;7.53;100.00
53262;BME280;39658;51.090;-1.786;2022-10-16T04:25:16;100226.28;;;7.37;100.00
53262;BME280;39658;51.090;-1.786;2022-10-16T04:27:44;100227.97;;;7.38;100.00
53262;BME280;39658;51.090;-1.786;2022-10-16T04:30:11;100222.97;;;7.35;100.00
53262;BME280;39658;51.090;-1.786;2022-10-16T04:32:38;100234.13;;;7.19;100.00
53262;BME280;39658;51.090;-1.786;2022-10-16T04:35:06;100231.09;;;7.14;100.00
53262;BME280;39658;51.090;-1.786;2022-10-16T04:37:33;100234.50;;;6.97;100.00
53262;BME280;39658;51.090;-1.786;2022-10-16T04:39:59;100239.34;;;7.01;100.00
53262;BME280;39658;51.090;-1.786;2022-10-16T04:42:26;100243.66;;;7.02;100.00
53262;BME280;39658;51.090;-1.786;2022-10-16T04:44:54;100247.44;;;7.00;100.00
53262;BME280;39658;51.090;-1.786;2022-10-16T04:47:21;100249.94;;;7.01;100.00
53262;BME280;39658;51.090;-1.786;2022-10-16T04:49:48;100254.94;;;7.04;100.00
53262;BME280;39658;51.090;-1.786;2022-10-16T04:52:15;100254.25;;;7.02;100.00
53262;BME280;39658;51.090;-1.786;2022-10-16T04:54:42;100267.38;;;6.94;100.00
53262;BME280;39658;51.090;-1.786;2022-10-16T04:57:10;100258.63;;;6.84;100.00
53262;BME280;39658;51.090;-1.786;2022-10-16T04:59:37;100261.09;;;6.76;100.00
53262;BME280;39658;51.090;-1.786;2022-10-16T05:02:05;100270.31;;;6.62;100.00
53262;BME280;39658;51.090;-1.786;2022-10-16T05:04:32;100271.03;;;6.54;100.00
53262;BME280;39658;51.090;-1.786;2022-10-16T05:06:59;100274.91;;;6.50;100.00
53262;BME280;39658;51.090;-1.786;2022-10-16T05:09:26;100280.50;;;6.47;100.00
53262;BME280;39658;51.090;-1.786;2022-10-16T05:11:52;100285.34;;;6.42;100.00
53262;BME280;39658;51.090;-1.786;2022-10-16T05:14:19;100299.81;;;6.48;100.00
53262;BME280;39658;51.090;-1.786;2022-10-16T05:16:46;100303.72;;;6.53;100.00
53262;BME280;39658;51.090;-1.786;2022-10-16T05:19:15;100306.34;;;6.44;100.00
53262;BME280;39658;51.090;-1.786;2022-10-16T05:21:41;100305.81;;;6.50;100.00
53262;BME280;39658;51.090;-1.786;2022-10-16T05:24:08;100309.41;;;6.49;100.00
53262;BME280;39658;51.090;-1.786;2022-10-16T05:26:35;100309.69;;;6.46;100.00
53262;BME280;39658;51.090;-1.786;2022-10-16T05:29:02;100319.69;;;6.33;100.00
53262;BME280;39658;51.090;-1.786;2022-10-16T05:31:29;100313.41;;;6.34;100.00
53262;BME280;39658;51.090;-1.786;2022-10-16T05:33:58;100327.03;;;6.19;100.00
53262;BME280;39658;51.090;-1.786;2022-10-16T05:36:27;100328.28;;;6.15;100.00
53262;BME280;39658;51.090;-1.786;2022-10-16T05:38:54;100318.41;;;6.17;100.00
53262;BME280;39658;51.090;-1.786;2022-10-16T05:41:21;100325.91;;;6.12;100.00
53262;BME280;39658;51.090;-1.786;2022-10-16T05:43:50;100326.88;;;6.11;100.00
53262;BME280;39658;51.090;-1.786;2022-10-16T05:46:17;100324.47;;;5.98;100.00
53262;BME280;39658;51.090;-1.786;2022-10-16T05:48:44;100335.84;;;5.89;100.00
53262;BME280;39658;51.090;-1.786;2022-10-16T05:51:13;100335.69;;;5.91;100.00
53262;BME280;39658;51.090;-1.786;2022-10-16T05:53:41;100332.22;;;5.90;100.00
53262;BME280;39658;51.090;-1.786;2022-10-16T05:56:10;100344.97;;;5.85;100.00
53262;BME280;39658;51.090;-1.786;2022-10-16T05:58:38;100352.50;;;5.90;100.00
53262;BME280;39658;51.090;-1.786;2022-10-16T06:01:07;100348.78;;;5.92;100.00
53262;BME280;39658;51.090;-1.786;2022-10-16T06:03:35;100348.06;;;5.90;100.00
53262;BME280;39658;51.090;-1.786;2022-10-16T06:06:07;100350.09;;;5.87;100.00
53262;BME280;39658;51.090;-1.786;2022-10-16T06:08:34;100352.75;;;5.87;100.00
53262;BME280;39658;51.090;-1.786;2022-10-16T06:11:04;100355.44;;;5.96;100.00
53262;BME280;39658;51.090;-1.786;2022-10-16T06:13:31;100352.25;;;5.93;100.00
53262;BME280;39658;51.090;-1.786;2022-10-16T06:15:59;100355.84;;;5.92;100.00
53262;BME280;39658;51.090;-1.786;2022-10-16T06:18:27;100363.72;;;6.03;100.00
53262;BME280;39658;51.090;-1.786;2022-10-16T06:20:55;100362.03;;;6.02;100.00
53262;BME280;39658;51.090;-1.786;2022-10-16T06:23:22;100363.38;;;5.96;100.00
53262;BME280;39658;51.090;-1.786;2022-10-16T06:25:49;100362.28;;;5.99;100.00
53262;BME280;39658;51.090;-1.786;2022-10-16T06:28:18;100364.34;;;5.95;100.00
53262;BME280;39658;51.090;-1.786;2022-10-16T06:30:45;100364.75;;;5.91;100.00
53262;BME280;39658;51.090;-1.786;2022-10-16T06:33:12;100373.25;;;5.94;100.00
53262;BME280;39658;51.090;-1.786;2022-10-16T06:35:39;100373.31;;;6.04;100.00
53262;BME280;39658;51.090;-1.786;2022-10-16T06:38:05;100377.22;;;6.19;100.00
53262;BME280;39658;51.090;-1.786;2022-10-16T06:40:32;100378.41;;;6.46;100.00
53262;BME280;39658;51.090;-1.786;2022-10-16T06:42:59;100387.75;;;6.69;100.00
53262;BME280;39658;51.090;-1.786;2022-10-16T06:45:27;100390.53;;;6.77;100.00
53262;BME280;39658;51.090;-1.786;2022-10-16T06:47:54;100387.75;;;6.79;100.00
53262;BME280;39658;51.090;-1.786;2022-10-16T06:50:21;100381.09;;;6.84;100.00
53262;BME280;39658;51.090;-1.786;2022-10-16T06:52:49;100391.53;;;6.86;100.00
53262;BME280;39658;51.090;-1.786;2022-10-16T06:55:16;100401.84;;;6.89;100.00
53262;BME280;39658;51.090;-1.786;2022-10-16T06:57:43;100405.59;;;7.06;100.00
53262;BME280;39658;51.090;-1.786;2022-10-16T07:00:10;100410.03;;;7.34;100.00
53262;BME280;39658;51.090;-1.786;2022-10-16T07:02:39;100416.69;;;7.48;100.00
53262;BME280;39658;51.090;-1.786;2022-10-16T07:05:06;100425.06;;;7.53;100.00
53262;BME280;39658;51.090;-1.786;2022-10-16T07:07:33;100428.25;;;7.57;100.00
53262;BME280;39658;51.090;-1.786;2022-10-16T07:10:00;100431.84;;;7.75;100.00
53262;BME280;39658;51.090;-1.786;2022-10-16T07:12:26;100436.56;;;7.81;100.00
53262;BME280;39658;51.090;-1.786;2022-10-16T07:14:53;100444.63;;;7.89;100.00
53262;BME280;39658;51.090;-1.786;2022-10-16T07:17:21;100444.72;;;8.07;100.00
53262;BME280;39658;51.090;-1.786;2022-10-16T07:19:49;100443.03;;;8.15;100.00
53262;BME280;39658;51.090;-1.786;2022-10-16T07:22:18;100443.50;;;8.29;100.00
53262;BME280;39658;51.090;-1.786;2022-10-16T07:24:45;100457.56;;;8.39;100.00
53262;BME280;39658;51.090;-1.786;2022-10-16T07:27:12;100449.91;;;8.45;100.00
53262;BME280;39658;51.090;-1.786;2022-10-16T07:29:38;100447.59;;;8.78;100.00
53262;BME280;39658;51.090;-1.786;2022-10-16T07:32:05;100464.16;;;9.07;100.00
53262;BME280;39658;51.090;-1.786;2022-10-16T07:34:32;100465.56;;;9.73;100.00
53262;BME280;39658;51.090;-1.786;2022-10-16T07:37:00;100466.34;;;10.85;97.07
53262;BME280;39658;51.090;-1.786;2022-10-16T07:39:27;100461.06;;;11.75;90.64
53262;BME280;39658;51.090;-1.786;2022-10-16T07:41:54;100456.56;;;13.17;85.81
53262;BME280;39658;51.090;-1.786;2022-10-16T07:44:21;100453.41;;;14.26;80.50
53262;BME280;39658;51.090;-1.786;2022-10-16T07:46:48;100460.84;;;15.11;73.86
53262;BME280;39658;51.090;-1.786;2022-10-16T07:49:15;100461.31;;;15.79;72.14
53262;BME280;39658;51.090;-1.786;2022-10-16T07:51:41;100463.13;;;16.34;67.51
53262;BME280;39658;51.090;-1.786;2022-10-16T07:54:10;100467.34;;;16.84;65.27
53262;BME280;39658;51.090;-1.786;2022-10-16T07:56:37;100460.41;;;17.43;65.25
53262;BME280;39658;51.090;-1.786;2022-10-16T07:59:03;100462.06;;;17.57;61.17
53262;BME280;39658;51.090;-1.786;2022-10-16T08:01:30;100454.03;;;17.83;59.23
53262;BME280;39658;51.090;-1.786;2022-10-16T08:03:57;100462.31;;;18.15;59.04
53262;BME280;39658;51.090;-1.786;2022-10-16T08:06:24;100471.63;;;17.93;57.28
53262;BME280;39658;51.090;-1.786;2022-10-16T08:08:51;100464.41;;;17.73;57.89
53262;BME280;39658;51.090;-1.786;2022-10-16T08:11:19;100466.66;;;17.90;58.65
53262;BME280;39658;51.090;-1.786;2022-10-16T08:13:46;100466.25;;;18.84;56.38
53262;BME280;39658;51.090;-1.786;2022-10-16T08:16:13;100481.41;;;18.78;58.70
53262;BME280;39658;51.090;-1.786;2022-10-16T08:18:41;100485.16;;;19.53;53.47
53262;BME280;39658;51.090;-1.786;2022-10-16T08:21:13;100493.41;;;20.33;53.32
53262;BME280;39658;51.090;-1.786;2022-10-16T08:23:40;100492.47;;;20.64;48.79
53262;BME280;39658;51.090;-1.786;2022-10-16T08:26:08;100500.41;;;20.41;49.24
53262;BME280;39658;51.090;-1.786;2022-10-16T08:28:37;100495.41;;;20.19;49.37
53262;BME280;39658;51.090;-1.786;2022-10-16T08:31:08;100494.44;;;19.64;50.16
53262;BME280;39658;51.090;-1.786;2022-10-16T08:33:35;100495.19;;;18.37;54.40
53262;BME280;39658;51.090;-1.786;2022-10-16T08:36:03;100492.53;;;18.95;54.77
53262;BME280;39658;51.090;-1.786;2022-10-16T08:38:30;100498.81;;;19.27;54.71
53262;BME280;39658;51.090;-1.786;2022-10-16T08:41:08;100504.47;;;19.82;51.67
53262;BME280;39658;51.090;-1.786;2022-10-16T08:43:47;100497.50;;;20.17;
53262;BME280;39658;51.090;-1.786;2022-10-16T08:46:40;100501.13;;;20.11;52.02
53262;BME280;39658;51.090;-1.786;2022-10-16T08:49:12;100509.22;;;19.61;52.30
53262;BME280;39658;51.090;-1.786;2022-10-16T08:51:40;100497.88;;;19.78;51.54
53262;BME280;39658;51.090;-1.786;2022-10-16T08:54:23;100509.09;;;20.24;49.82
53262;BME280;39658;51.090;-1.786;2022-10-16T08:56:54;100514.34;;;20.44;48.83
53262;BME280;39658;51.090;-1.786;2022-10-16T08:59:22;100522.06;;;20.59;50.15
53262;BME280;39658;51.090;-1.786;2022-10-16T09:01:50;100524.25;;;20.25;50.37
53262;BME280;39658;51.090;-1.786;2022-10-16T09:04:44;100524.31;;;20.99;50.43
53262;BME280;39658;51.090;-1.786;2022-10-16T09:07:17;100518.78;;;21.53;48.68
53262;BME280;39658;51.090;-1.786;2022-10-16T09:10:00;100520.09;;;22.51;45.94
53262;BME280;39658;51.090;-1.786;2022-10-16T09:12:33;100526.97;;;21.77;47.42
53262;BME280;39658;51.090;-1.786;2022-10-16T09:15:14;100528.28;;;21.74;48.26
53262;BME280;39658;51.090;-1.786;2022-10-16T09:17:50;100519.63;;;23.06;45.36
53262;BME280;39658;51.090;-1.786;2022-10-16T09:20:28;100519.53;;;23.01;44.42
53262;BME280;39658;51.090;-1.786;2022-10-16T09:23:10;100519.34;;;22.67;44.88
53262;BME280;39658;51.090;-1.786;2022-10-16T09:25:39;100520.84;;;22.98;44.56
53262;BME280;39658;51.090;-1.786;2022-10-16T09:28:08;100521.78;;;23.61;43.60
53262;BME280;39658;51.090;-1.786;2022-10-16T09:30:37;100521.13;;;23.25;43.98
53262;BME280;39658;51.090;-1.786;2022-10-16T09:33:05;100522.13;;;23.81;43.94
53262;BME280;39658;51.090;-1.786;2022-10-16T09:35:36;100516.75;;;22.72;45.38
53262;BME280;39658;51.090;-1.786;2022-10-16T09:38:04;100521.81;;;23.49;43.36
53262;BME280;39658;51.090;-1.786;2022-10-16T09:40:33;100517.28;;;23.83;43.40
53262;BME280;39658;51.090;-1.786;2022-10-16T09:43:16;100524.03;;;23.97;45.46
53262;BME280;39658;51.090;-1.786;2022-10-16T09:45:55;100525.53;;;24.60;40.38
53262;BME280;39658;51.090;-1.786;2022-10-16T09:48:22;100528.19;;;25.21;40.03
53262;BME280;39658;51.090;-1.786;2022-10-16T09:50:57;100530.28;;;24.15;40.60
53262;BME280;39658;51.090;-1.786;2022-10-16T09:53:27;100531.47;;;24.02;39.51
53262;BME280;39658;51.090;-1.786;2022-10-16T09:56:04;100538.41;;;21.90;43.52
53262;BME280;39658;51.090;-1.786;2022-10-16T09:58:32;100534.63;;;21.20;45.79
53262;BME280;39658;51.090;-1.786;2022-10-16T10:01:00;100526.06;;;21.41;46.63
53262;BME280;39658;51.090;-1.786;2022-10-16T10:03:36;100517.88;;;21.11;46.89
53262;BME280;39658;51.090;-1.786;2022-10-16T10:06:14;100512.38;;;22.01;45.44
53262;BME280;39658;51.090;-1.786;2022-10-16T10:08:56;100512.16;;;23.41;42.65
53262;BME280;39658;51.090;-1.786;2022-10-16T10:11:48;100510.06;;;23.60;42.70
53262;BME280;39658;51.090;-1.786;2022-10-16T10:14:24;100505.00;;;23.97;41.50
53262;BME280;39658;51.090;-1.786;2022-10-16T10:17:09;100513.22;;;24.19;40.98
53262;BME280;39658;51.090;-1.786;2022-10-16T10:19:38;100517.91;;;24.24;40.82
53262;BME280;39658;51.090;-1.786;2022-10-16T10:22:16;100516.44;;;23.09;42.27
53262;BME280;39658;51.090;-1.786;2022-10-16T10:24:44;100528.94;;;22.81;43.35
53262;BME280;39658;51.090;-1.786;2022-10-16T10:27:15;100523.75;;;22.45;43.67
53262;BME280;39658;51.090;-1.786;2022-10-16T10:29:49;100530.75;;;21.87;45.69
53262;BME280;39658;51.090;-1.786;2022-10-16T10:32:31;100526.38;;;21.75;46.62
53262;BME280;39658;51.090;-1.786;2022-10-16T10:35:13;100528.16;;;21.39;47.27
53262;BME280;39658;51.090;-1.786;2022-10-16T10:37:53;100531.38;;;20.63;49.60
53262;BME280;39658;51.090;-1.786;2022-10-16T10:40:29;100529.13;;;20.78;49.62
53262;BME280;39658;51.090;-1.786;2022-10-16T10:43:04;100523.19;;;21.24;48.77
53262;BME280;39658;51.090;-1.786;2022-10-16T10:45:41;100516.84;;;21.72;48.93
53262;BME280;39658;51.090;-1.786;2022-10-16T10:48:31;100522.13;;;22.09;47.04
53262;BME280;39658;51.090;-1.786;2022-10-16T10:51:03;100527.66;;;21.31;48.15
53262;BME280;39658;51.090;-1.786;2022-10-16T10:53:38;100528.41;;;21.79;47.37
53262;BME280;39658;51.090;-1.786;2022-10-16T10:56:18;100523.00;;;21.91;48.32
53262;BME280;39658;51.090;-1.786;2022-10-16T10:59:00;100520.94;;;22.05;46.51
53262;BME280;39658;51.090;-1.786;2022-10-16T11:01:36;100521.56;;;21.88;46.83
53262;BME280;39658;51.090;-1.786;2022-10-16T11:04:33;100525.44;;;21.21;47.99
53262;BME280;39658;51.090;-1.786;2022-10-16T11:07:04;100524.63;;;20.29;49.87
53262;BME280;39658;51.090;-1.786;2022-10-16T11:09:34;100526.59;;;20.83;48.75
53262;BME280;39658;51.090;-1.786;2022-10-16T11:12:06;100521.66;;;21.70;47.51
53262;BME280;39658;51.090;-1.786;2022-10-16T11:14:40;100515.00;;;22.66;43.66
53262;BME280;39658;51.090;-1.786;2022-10-16T11:17:10;100516.63;;;22.67;43.78
53262;BME280;39658;51.090;-1.786;2022-10-16T11:19:44;100523.53;;;22.11;45.59
53262;BME280;39658;51.090;-1.786;2022-10-16T11:22:17;100528.25;;;22.16;44.47
53262;BME280;39658;51.090;-1.786;2022-10-16T11:24:50;100519.91;;;21.87;45.48
53262;BME280;39658;51.090;-1.786;2022-10-16T11:27:22;100531.72;;;21.21;47.98
53262;BME280;39658;51.090;-1.786;2022-10-16T11:29:59;100524.06;;;21.48;48.41
53262;BME280;39658;51.090;-1.786;2022-10-16T11:32:30;100526.63;;;21.32;47.53
53262;BME280;39658;51.090;-1.786;2022-10-16T11:35:06;100522.66;;;20.79;49.88
53262;BME280;39658;51.090;-1.786;2022-10-16T11:37:41;100528.00;;;20.49;50.37
53262;BME280;39658;51.090;-1.786;2022-10-16T11:40:22;100530.63;;;20.31;50.72
53262;BME280;39658;51.090;-1.786;2022-10-16T11:42:55;100531.19;;;20.40;51.56
53262;BME280;39658;51.090;-1.786;2022-10-16T11:45:29;100527.25;;;21.45;47.31
53262;BME280;39658;51.090;-1.786;2022-10-16T11:48:01;100522.47;;;21.29;48.63
53262;BME280;39658;51.090;-1.786;2022-10-16T11:50:32;100514.97;;;21.31;47.69
53262;BME280;39658;51.090;-1.786;2022-10-16T11:53:04;100507.78;;;21.90;46.00
53262;BME280;39658;51.090;-1.786;2022-10-16T11:55:37;100514.69;;;22.04;45.35
53262;BME280;39658;51.090;-1.786;2022-10-16T11:58:09;100508.59;;;21.67;46.45
53262;BME280;39658;51.090;-1.786;2022-10-16T12:00:45;100510.13;;;21.33;47.17
53262;BME280;39658;51.090;-1.786;2022-10-16T12:03:19;100511.47;;;20.57;49.93
53262;BME280;39658;51.090;-1.786;2022-10-16T12:06:01;100502.53;;;20.75;49.44
53262;BME280;39658;51.090;-1.786;2022-10-16T12:08:33;100506.00;;;20.39;50.10
53262;BME280;39658;51.090;-1.786;2022-10-16T12:11:07;100502.72;;;18.93;54.42
53262;BME280;39658;51.090;-1.786;2022-10-16T12:13:36;100500.59;;;20.39;51.35
53262;BME280;39658;51.090;-1.786;2022-10-16T12:16:19;100493.34;;;20.76;50.03
53262;BME280;39658;51.090;-1.786;2022-10-16T12:18:47;100495.78;;;19.80;51.30
53262;BME280;39658;51.090;-1.786;2022-10-16T12:21:17;100492.13;;;18.13;56.73
53262;BME280;39658;51.090;-1.786;2022-10-16T12:23:48;100505.25;;;17.09;58.67
53262;BME280;39658;51.090;-1.786;2022-10-16T12:26:24;100497.75;;;18.05;57.68
53262;BME280;39658;51.090;-1.786;2022-10-16T12:28:52;100494.56;;;18.48;56.26
53262;BME280;39658;51.090;-1.786;2022-10-16T12:31:19;100496.50;;;18.92;55.09
53262;BME280;39658;51.090;-1.786;2022-10-16T12:33:57;100498.03;;;20.08;53.32
53262;BME280;39658;51.090;-1.786;2022-10-16T12:36:30;100491.53;;;20.33;51.45
53262;BME280;39658;51.090;-1.786;2022-10-16T12:38:58;100493.56;;;20.38;50.11
53262;BME280;39658;51.090;-1.786;2022-10-16T12:41:27;100493.06;;;21.33;48.65
53262;BME280;39658;51.090;-1.786;2022-10-16T12:43:55;100488.69;;;19.22;53.62
53262;BME280;39658;51.090;-1.786;2022-10-16T12:46:33;100478.97;;;18.63;54.81
53262;BME280;39658;51.090;-1.786;2022-10-16T12:49:23;100477.84;;;18.00;56.69
53262;BME280;39658;51.090;-1.786;2022-10-16T12:51:57;100476.41;;;17.91;58.03
53262;BME280;39658;51.090;-1.786;2022-10-16T12:54:28;100478.22;;;17.50;59.18
53262;BME280;39658;51.090;-1.786;2022-10-16T12:57:09;100478.84;;;17.52;60.20